Time;durP1;ratioP1;P1;durP2;ratioP2;P2;SDS_P1;SDS_P2;PMS_P1;PMS_P2;Temp;Humidity;BMP_temperature;BMP_pressure;BME280_temperature;BME280_humidity;BME280_pressure;Samples;Min_cycle;Max_cycle;Signal;HPM_P1;HPM_P2
2022/10/28 00:01:41;;;;;;;1.07;1.07;;;20.10;99.90;;;;;;5054279;28;20503;-76
2022/10/28 00:04:07;;;;;;;0.60;0.50;;;20.10;99.90;;;;;;5054244;28;20568;-77
2022/10/28 00:06:36;;;;;;;2.20;2.10;;;20.00;99.90;;;;;;5054362;28;21029;-77
2022/10/28 00:09:04;;;;;;;1.47;0.80;;;20.00;99.90;;;;;;5054371;28;21025;-77
2022/10/28 00:11:34;;;;;;;0.50;0.30;;;20.00;99.90;;;;;;5053932;28;20496;-77
2022/10/28 00:14:04;;;;;;;0.50;0.40;;;20.00;99.90;;;;;;5054287;28;20998;-76
2022/10/28 00:16:34;;;;;;;2.93;1.03;;;20.00;99.90;;;;;;5054333;28;20445;-76
2022/10/28 00:19:01;;;;;;;0.50;0.40;;;20.00;99.90;;;;;;5054226;28;20443;-77
2022/10/28 00:21:30;;;;;;;3.97;0.90;;;20.00;99.90;;;;;;5054421;28;20551;-77
2022/10/28 00:23:58;;;;;;;0.50;0.40;;;20.00;99.90;;;;;;5053970;28;20437;-77
2022/10/28 00:26:26;;;;;;;0.50;0.37;;;20.00;99.90;;;;;;5053680;28;20437;-76
2022/10/28 00:28:55;;;;;;;0.70;0.50;;;20.00;99.90;;;;;;5054139;28;20590;-76
2022/10/28 00:31:25;;;;;;;0.50;0.30;;;20.00;99.90;;;;;;5053987;28;20543;-77
2022/10/28 00:33:53;;;;;;;1.03;0.93;;;20.00;99.90;;;;;;5053747;28;20933;-76
2022/10/28 00:36:22;;;;;;;0.90;0.90;;;20.00;99.90;;;;;;5053717;28;20457;-77
2022/10/28 00:38:51;;;;;;;0.50;0.40;;;20.00;99.90;;;;;;5053142;28;20433;-77
2022/10/28 00:41:20;;;;;;;0.70;0.70;;;20.00;99.90;;;;;;5053786;28;20857;-76
2022/10/28 00:43:50;;;;;;;2.00;1.53;;;20.10;99.90;;;;;;5052894;28;20441;-77
2022/10/28 00:46:24;;;;;;;6.93;1.80;;;20.10;99.90;;;;;;5053734;28;20441;-77
2022/10/28 00:48:57;;;;;;;0.70;0.50;;;20.10;99.90;;;;;;5053467;28;20473;-77
2022/10/28 00:51:26;;;;;;;3.27;0.70;;;20.10;99.90;;;;;;5054008;28;20531;-77
2022/10/28 00:53:55;;;;;;;0.60;0.50;;;20.10;99.90;;;;;;5053394;28;20555;-76
2022/10/28 00:56:23;;;;;;;1.03;0.93;;;20.10;99.90;;;;;;5053348;28;20452;-76
2022/10/28 00:58:51;;;;;;;3.37;2.40;;;20.10;99.90;;;;;;5053158;28;20440;-77
2022/10/28 01:01:18;;;;;;;0.50;0.30;;;20.00;99.90;;;;;;5053698;28;20445;-76
2022/10/28 01:03:45;;;;;;;0.67;0.67;;;20.10;99.90;;;;;;5052977;28;20528;-76
2022/10/28 01:06:14;;;;;;;0.70;0.60;;;20.20;99.90;;;;;;5053161;28;20456;-76
2022/10/28 01:08:41;;;;;;;0.50;0.40;;;20.40;99.90;;;;;;5052912;28;20528;-77
2022/10/28 01:11:30;;;;;;;0.50;0.30;;;20.40;99.90;;;;;;5053397;28;20539;-77
2022/10/28 01:14:16;;;;;;;8.70;8.20;;;20.40;99.90;;;;;;5052846;28;20443;-76
2022/10/28 01:16:58;;;;;;;0.50;0.30;;;20.40;99.90;;;;;;5053292;28;20444;-76
2022/10/28 01:20:10;;;;;;;0.57;0.43;;;20.40;99.90;;;;;;5053205;28;20448;-76
2022/10/28 01:22:44;;;;;;;0.80;0.70;;;20.40;99.90;;;;;;5048206;28;20469;-77
2022/10/28 01:25:36;;;;;;;0.70;0.70;;;20.50;99.90;;;;;;5052810;28;20443;-76
2022/10/28 01:28:28;;;;;;;0.50;0.40;;;20.40;99.90;;;;;;5052983;28;20536;-77
2022/10/28 01:31:15;;;;;;;10.53;3.33;;;20.40;99.90;;;;;;5052814;28;20496;-77
2022/10/28 01:33:49;;;;;;;10.23;3.83;;;20.30;99.90;;;;;;5052440;28;20520;-77
2022/10/28 01:36:19;;;;;;;5.20;1.90;;;20.40;99.90;;;;;;5052640;28;20437;-76
2022/10/28 01:38:54;;;;;;;2.57;2.47;;;20.40;99.90;;;;;;5052522;28;20523;-77
2022/10/28 01:41:29;;;;;;;0.50;0.30;;;20.40;99.90;;;;;;5052887;28;20544;-76
2022/10/28 01:44:02;;;;;;;1.47;1.37;;;20.40;99.90;;;;;;5051860;28;20456;-77
2022/10/28 01:46:39;;;;;;;0.50;0.40;;;20.40;99.90;;;;;;5052387;28;20954;-76
2022/10/28 01:49:11;;;;;;;0.50;0.40;;;20.40;99.90;;;;;;5052224;28;20453;-76
2022/10/28 01:51:40;;;;;;;0.87;0.70;;;20.30;99.90;;;;;;5051766;28;20990;-76
2022/10/28 01:54:09;;;;;;;1.47;0.80;;;20.30;99.90;;;;;;5051515;28;20536;-77
2022/10/28 01:56:40;;;;;;;0.50;0.30;;;20.30;99.90;;;;;;5052513;28;20443;-76
2022/10/28 01:59:11;;;;;;;0.77;0.77;;;20.30;99.90;;;;;;5052251;28;20516;-77
2022/10/28 02:01:39;;;;;;;0.60;0.50;;;20.30;99.90;;;;;;5052535;28;20471;-76
2022/10/28 02:04:06;;;;;;;0.50;0.40;;;20.30;99.90;;;;;;5052196;28;20451;-76
2022/10/28 02:06:34;;;;;;;5.60;1.63;;;20.30;99.90;;;;;;5051793;28;20520;-76
2022/10/28 02:09:27;;;;;;;7.70;4.63;;;20.20;99.90;;;;;;5051867;28;20849;-77
2022/10/28 02:12:06;;;;;;;1.77;0.80;;;20.20;99.90;;;;;;5050395;28;20472;-77
2022/10/28 02:14:58;;;;;;;0.50;0.40;;;20.10;99.90;;;;;;5051659;28;20413;-76
2022/10/28 02:17:37;;;;;;;1.67;0.70;;;20.00;99.90;;;;;;5052151;28;20926;-75
2022/10/28 02:20:14;;;;;;;0.50;0.30;;;20.00;99.90;;;;;;5051723;28;20449;-76
2022/10/28 02:22:45;;;;;;;1.13;1.13;;;19.90;99.90;;;;;;5051947;28;20459;-76
2022/10/28 02:25:18;;;;;;;2.50;0.90;;;19.90;99.90;;;;;;5051532;28;20974;-76
2022/10/28 02:27:51;;;;;;;1.40;1.30;;;19.80;99.90;;;;;;5052184;28;20417;-77
2022/10/28 02:30:23;;;;;;;0.70;0.47;;;19.80;99.90;;;;;;5051642;28;20477;-77
2022/10/28 02:32:57;;;;;;;0.50;0.40;;;19.80;99.90;;;;;;5051596;28;20842;-76
2022/10/28 02:35:29;;;;;;;0.90;0.80;;;19.70;99.90;;;;;;5051248;28;20457;-77
2022/10/28 02:37:58;;;;;;;2.50;1.60;;;19.60;99.90;;;;;;5051787;28;20447;-77
2022/10/28 02:40:28;;;;;;;2.30;1.03;;;19.60;99.90;;;;;;5051723;28;20475;-77
2022/10/28 02:42:59;;;;;;;0.50;0.30;;;19.60;99.90;;;;;;5051022;28;20548;-76
2022/10/28 02:45:31;;;;;;;2.30;0.60;;;19.40;99.90;;;;;;5051626;28;20514;-77
2022/10/28 02:48:03;;;;;;;0.93;0.70;;;19.30;99.90;;;;;;5051779;28;20428;-76
2022/10/28 02:50:33;;;;;;;0.50;0.50;;;19.30;99.90;;;;;;5051223;28;20568;-77
2022/10/28 02:53:05;;;;;;;0.60;0.53;;;19.30;99.90;;;;;;5051482;28;20547;-76
2022/10/28 02:55:38;;;;;;;0.50;0.30;;;19.30;99.90;;;;;;5050949;28;20969;-77
2022/10/28 02:58:06;;;;;;;0.50;0.40;;;19.30;99.90;;;;;;5051515;28;20520;-77
2022/10/28 03:00:33;;;;;;;0.50;0.30;;;19.30;99.90;;;;;;5051508;28;20437;-76
2022/10/28 03:03:01;;;;;;;0.60;0.40;;;19.20;99.90;;;;;;5051029;28;20477;-77
2022/10/28 03:05:28;;;;;;;0.63;0.63;;;19.30;99.90;;;;;;5050614;28;20441;-77
2022/10/28 03:07:55;;;;;;;0.50;0.40;;;19.30;99.90;;;;;;5051551;28;20441;-77
2022/10/28 03:10:21;;;;;;;0.60;0.40;;;19.30;99.90;;;;;;5051036;28;20986;-77
2022/10/28 03:12:48;;;;;;;6.00;1.53;;;19.30;99.90;;;;;;5050805;28;20465;-77
2022/10/28 03:15:15;;;;;;;0.50;0.30;;;19.20;99.90;;;;;;5051126;28;20449;-77
2022/10/28 03:17:42;;;;;;;0.50;0.33;;;19.20;99.90;;;;;;5050938;28;20451;-77
2022/10/28 03:20:11;;;;;;;0.50;0.30;;;19.20;99.90;;;;;;5051250;28;20447;-76
2022/10/28 03:22:38;;;;;;;0.50;0.30;;;19.10;99.90;;;;;;5055205;28;20906;-77
2022/10/28 03:25:06;;;;;;;0.50;0.30;;;19.10;99.90;;;;;;5054597;28;20433;-77
2022/10/28 03:27:32;;;;;;;0.97;0.90;;;19.10;99.90;;;;;;5055867;28;20425;-78
2022/10/28 03:29:59;;;;;;;0.50;0.40;;;19.10;99.90;;;;;;5057157;28;20561;-79
2022/10/28 03:32:26;;;;;;;1.27;0.87;;;19.10;99.90;;;;;;5056052;28;20544;-77
2022/10/28 03:34:53;;;;;;;0.50;0.30;;;19.10;99.90;;;;;;5054001;28;20459;-77
2022/10/28 03:37:21;;;;;;;0.50;0.40;;;19.10;99.90;;;;;;5053606;28;20566;-78
2022/10/28 03:39:48;;;;;;;0.50;0.30;;;19.10;99.90;;;;;;5053440;28;20545;-79
2022/10/28 03:42:15;;;;;;;0.60;0.40;;;19.00;99.90;;;;;;5054131;28;20984;-78
2022/10/28 03:44:41;;;;;;;0.50;0.40;;;19.00;99.90;;;;;;5054821;28;20520;-78
2022/10/28 03:47:09;;;;;;;0.50;0.30;;;19.00;99.90;;;;;;5052734;28;20532;-77
2022/10/28 03:49:36;;;;;;;0.50;0.30;;;19.00;99.90;;;;;;5055676;28;20531;-78
2022/10/28 03:52:03;;;;;;;0.50;0.30;;;18.90;99.90;;;;;;5053394;28;20453;-77
2022/10/28 03:54:31;;;;;;;1.90;1.77;;;18.80;99.90;;;;;;5051628;28;20433;-78
2022/10/28 03:56:57;;;;;;;1.33;1.23;;;18.80;99.90;;;;;;5051276;28;20960;-78
2022/10/28 03:59:24;;;;;;;0.50;0.40;;;18.80;99.90;;;;;;5052036;28;20473;-76
2022/10/28 04:01:51;;;;;;;0.50;0.30;;;18.80;99.90;;;;;;5051576;28;20453;-79
2022/10/28 04:04:18;;;;;;;0.50;0.37;;;18.80;99.90;;;;;;5051574;28;20514;-78
2022/10/28 04:06:45;;;;;;;0.50;0.30;;;18.80;99.90;;;;;;5052124;28;20437;-77
2022/10/28 04:09:11;;;;;;;0.50;0.30;;;18.80;99.90;;;;;;5052084;28;20528;-76
2022/10/28 04:11:40;;;;;;;0.70;0.70;;;18.80;99.90;;;;;;5051999;28;20485;-77
2022/10/28 04:14:06;;;;;;;2.80;0.93;;;18.90;99.90;;;;;;5052892;28;20817;-78
2022/10/28 04:16:33;;;;;;;0.60;0.50;;;18.80;99.90;;;;;;5056168;28;20447;-77
2022/10/28 04:19:00;;;;;;;0.90;0.50;;;18.80;99.90;;;;;;5055913;28;21285;-78
2022/10/28 04:21:27;;;;;;;1.37;1.27;;;18.80;99.90;;;;;;5055679;28;20543;-77
2022/10/28 04:23:54;;;;;;;0.50;0.40;;;18.80;99.90;;;;;;5055943;28;20512;-78
2022/10/28 04:26:20;;;;;;;2.40;0.77;;;18.80;99.90;;;;;;5055578;28;21118;-77
2022/10/28 04:28:49;;;;;;;0.50;0.50;;;18.80;99.90;;;;;;5055789;28;20437;-77
2022/10/28 04:31:15;;;;;;;0.50;0.33;;;18.90;99.90;;;;;;5055316;28;20469;-77
2022/10/28 04:33:42;;;;;;;2.00;1.33;;;18.90;99.90;;;;;;5056154;28;20981;-77
2022/10/28 04:36:09;;;;;;;0.50;0.30;;;18.80;99.90;;;;;;5051070;28;20461;-78
2022/10/28 04:38:36;;;;;;;0.50;0.37;;;18.90;99.90;;;;;;5046158;28;20453;-78
2022/10/28 04:41:03;;;;;;;0.50;0.30;;;18.80;99.90;;;;;;5055555;28;20460;-77
2022/10/28 04:43:30;;;;;;;0.60;0.53;;;18.80;99.90;;;;;;5055024;28;20441;-77
2022/10/28 04:46:04;;;;;;;0.67;0.67;;;18.80;99.90;;;;;;5055155;28;20520;-77
2022/10/28 04:48:31;;;;;;;0.50;0.40;;;18.70;99.90;;;;;;5055667;28;20456;-78
2022/10/28 04:50:58;;;;;;;0.50;0.40;;;18.70;99.90;;;;;;5055045;28;21020;-77
2022/10/28 04:53:25;;;;;;;0.50;0.40;;;18.70;99.90;;;;;;5055979;28;20476;-77
2022/10/28 04:55:56;;;;;;;0.60;0.60;;;18.80;99.90;;;;;;5055468;28;20524;-78
2022/10/28 04:58:22;;;;;;;2.60;2.13;;;18.80;99.90;;;;;;5056259;28;20813;-78
2022/10/28 05:00:49;;;;;;;3.23;1.63;;;18.80;99.90;;;;;;5056113;28;20432;-78
2022/10/28 05:03:17;;;;;;;0.50;0.40;;;18.80;99.90;;;;;;5054381;28;20500;-77
2022/10/28 05:05:44;;;;;;;0.50;0.30;;;18.80;99.90;;;;;;5054130;28;20882;-77
2022/10/28 05:08:11;;;;;;;2.27;2.20;;;18.80;99.90;;;;;;5054932;28;20437;-77
2022/10/28 05:10:38;;;;;;;1.10;1.00;;;18.80;99.90;;;;;;5054805;28;20471;-78
2022/10/28 05:13:05;;;;;;;0.97;0.97;;;18.80;99.90;;;;;;5054566;28;20895;-77
2022/10/28 05:15:32;;;;;;;0.80;0.40;;;18.80;99.90;;;;;;5054672;28;20540;-79
2022/10/28 05:17:58;;;;;;;1.27;1.17;;;18.80;99.90;;;;;;5054667;28;20441;-78
2022/10/28 05:20:27;;;;;;;0.63;0.63;;;18.80;99.90;;;;;;5054299;28;20449;-77
2022/10/28 05:22:55;;;;;;;0.50;0.40;;;18.80;99.90;;;;;;5054488;28;20826;-77
2022/10/28 05:25:22;;;;;;;0.73;0.73;;;18.80;99.90;;;;;;5054889;28;20483;-77
2022/10/28 05:27:50;;;;;;;0.50;0.30;;;18.80;99.90;;;;;;5055096;28;20441;-77
2022/10/28 05:30:18;;;;;;;0.50;0.30;;;18.80;99.90;;;;;;5055572;28;20479;-77
2022/10/28 05:32:45;;;;;;;0.80;0.80;;;18.80;99.90;;;;;;5055031;28;20749;-77
2022/10/28 05:35:12;;;;;;;0.50;0.37;;;18.80;99.90;;;;;;5050931;28;20460;-77
2022/10/28 05:37:40;;;;;;;2.50;1.53;;;18.80;99.90;;;;;;5042739;28;20886;-78
2022/10/28 05:40:08;;;;;;;0.50;0.30;;;18.80;99.90;;;;;;5054109;28;21046;-77
2022/10/28 05:42:40;;;;;;;4.10;2.10;;;18.80;99.90;;;;;;5053354;28;20457;-77
2022/10/28 05:45:08;;;;;;;8.60;2.30;;;18.80;99.90;;;;;;5053186;28;20441;-77
2022/10/28 05:47:35;;;;;;;2.00;1.40;;;18.80;99.90;;;;;;5054459;28;20432;-78
2022/10/28 05:50:01;;;;;;;0.50;0.40;;;18.90;99.90;;;;;;5053699;28;20522;-77
2022/10/28 05:52:28;;;;;;;3.70;1.67;;;18.90;99.90;;;;;;5053443;28;20492;-77
2022/10/28 05:54:56;;;;;;;0.67;0.67;;;18.90;99.90;;;;;;5053258;28;20438;-77
2022/10/28 05:57:23;;;;;;;0.50;0.30;;;18.90;99.90;;;;;;5053546;28;20480;-78
2022/10/28 05:59:50;;;;;;;0.50;0.30;;;18.90;99.90;;;;;;5053592;28;20523;-78
2022/10/28 06:02:17;;;;;;;0.50;0.40;;;18.90;99.90;;;;;;5053437;28;20921;-78
2022/10/28 06:04:44;;;;;;;2.03;0.90;;;18.80;99.90;;;;;;5053093;28;21002;-77
2022/10/28 06:07:11;;;;;;;1.77;0.70;;;18.80;99.90;;;;;;5052948;28;20437;-77
2022/10/28 06:09:37;;;;;;;59.30;25.43;;;18.80;99.90;;;;;;5053386;28;20894;-77
2022/10/28 06:12:08;;;;;;;4.33;0.93;;;18.80;99.90;;;;;;5053520;28;21022;-79
2022/10/28 06:14:35;;;;;;;0.50;0.40;;;18.80;99.90;;;;;;5053385;28;20440;-77
2022/10/28 06:17:02;;;;;;;1.80;1.13;;;18.80;99.90;;;;;;5053412;28;20433;-78
2022/10/28 06:19:28;;;;;;;0.50;0.30;;;18.70;99.90;;;;;;5053140;28;20449;-77
2022/10/28 06:21:55;;;;;;;2.53;0.60;;;18.80;99.90;;;;;;5052720;28;20452;-78
2022/10/28 06:24:22;;;;;;;6.47;2.67;;;18.70;99.90;;;;;;5052916;28;20434;-78
2022/10/28 06:26:49;;;;;;;1.27;1.17;;;18.70;99.90;;;;;;5052673;28;20441;-78
2022/10/28 06:29:17;;;;;;;0.70;0.50;;;18.70;99.90;;;;;;5052724;28;20480;-77
2022/10/28 06:31:44;;;;;;;0.50;0.30;;;18.70;99.90;;;;;;5052804;28;21005;-78
2022/10/28 06:34:11;;;;;;;1.87;1.07;;;18.60;99.90;;;;;;5053147;28;20537;-78
2022/10/28 06:36:39;;;;;;;0.50;0.30;;;18.70;99.90;;;;;;5052212;28;20441;-77
2022/10/28 06:39:06;;;;;;;1.60;1.57;;;18.80;99.90;;;;;;5053047;28;20504;-77
2022/10/28 06:41:33;;;;;;;1.00;0.60;;;18.80;99.90;;;;;;5053372;28;20461;-77
2022/10/28 06:44:00;;;;;;;0.50;0.40;;;18.70;99.90;;;;;;5052811;28;20528;-78
2022/10/28 06:46:29;;;;;;;0.50;0.30;;;18.70;99.90;;;;;;5052811;28;20956;-77
2022/10/28 06:48:56;;;;;;;0.50;0.40;;;18.80;99.90;;;;;;5053217;28;20437;-77
2022/10/28 06:51:23;;;;;;;0.50;0.40;;;18.80;99.90;;;;;;5052418;28;20484;-77
2022/10/28 06:53:50;;;;;;;2.20;1.90;;;18.80;99.90;;;;;;5052252;28;20444;-77
2022/10/28 06:56:18;;;;;;;0.50;0.40;;;18.80;99.90;;;;;;5051776;28;20448;-79
2022/10/28 06:58:44;;;;;;;0.50;0.40;;;18.80;99.90;;;;;;5052316;28;20939;-77
2022/10/28 07:01:11;;;;;;;0.60;0.50;;;18.90;99.90;;;;;;5052464;28;20532;-77
2022/10/28 07:03:39;;;;;;;1.30;0.83;;;18.80;99.90;;;;;;5052585;28;20531;-77
2022/10/28 07:06:06;;;;;;;0.50;0.30;;;18.90;99.90;;;;;;5051662;28;20532;-77
2022/10/28 07:08:33;;;;;;;2.10;2.00;;;19.00;99.90;;;;;;5052635;28;20806;-78
2022/10/28 07:11:01;;;;;;;3.33;0.60;;;19.10;99.90;;;;;;5051820;28;20484;-77
2022/10/28 07:13:28;;;;;;;0.70;0.60;;;19.20;99.90;;;;;;5051875;28;20532;-77
2022/10/28 07:15:57;;;;;;;1.23;0.67;;;19.30;99.90;;;;;;5052703;28;20439;-77
2022/10/28 07:18:25;;;;;;;3.60;0.93;;;19.60;99.90;;;;;;5053138;28;20866;-77
2022/10/28 07:20:53;;;;;;;1.17;0.80;;;19.70;99.90;;;;;;5052510;28;20560;-78
2022/10/28 07:23:20;;;;;;;2.40;1.43;;;19.80;99.90;;;;;;5057600;28;20457;-78
2022/10/28 07:25:52;;;;;;;1.80;1.70;;;20.10;99.90;;;;;;5058070;28;20468;-77
2022/10/28 07:28:19;;;;;;;1.57;1.47;;;20.30;99.90;;;;;;5058649;28;20429;-77
2022/10/28 07:30:46;;;;;;;0.50;0.40;;;20.40;99.90;;;;;;5058831;28;20477;-77
2022/10/28 07:33:13;;;;;;;1.03;0.90;;;20.60;99.90;;;;;;5058044;28;20545;-77
2022/10/28 07:35:41;;;;;;;0.50;0.40;;;20.90;99.90;;;;;;5058255;28;20469;-77
2022/10/28 07:38:10;;;;;;;0.60;0.60;;;21.20;99.90;;;;;;5059665;28;20437;-76
2022/10/28 07:40:37;;;;;;;0.50;0.30;;;21.50;99.90;;;;;;5059231;28;20440;-77
2022/10/28 07:43:04;;;;;;;0.50;0.40;;;21.60;99.90;;;;;;5059326;28;20461;-77
2022/10/28 07:45:31;;;;;;;0.50;0.40;;;21.50;99.90;;;;;;5058313;28;20465;-78
2022/10/28 07:47:58;;;;;;;3.40;1.97;;;21.40;99.90;;;;;;5059030;28;20463;-77
2022/10/28 07:50:25;;;;;;;0.83;0.67;;;21.40;99.90;;;;;;5060280;28;20441;-78
2022/10/28 07:52:51;;;;;;;1.73;0.80;;;21.30;99.90;;;;;;5060879;28;20563;-78
2022/10/28 07:55:20;;;;;;;0.80;0.63;;;21.00;99.90;;;;;;5060064;28;20451;-77
2022/10/28 07:57:47;;;;;;;0.50;0.37;;;20.90;99.90;;;;;;5061813;28;20498;-78
2022/10/28 08:00:14;;;;;;;0.50;0.40;;;21.10;99.90;;;;;;5055055;28;20524;-78
2022/10/28 08:02:41;;;;;;;0.50;0.40;;;21.30;99.90;;;;;;5054058;28;20453;-79
2022/10/28 08:05:09;;;;;;;0.50;0.40;;;21.40;99.90;;;;;;5054701;28;20429;-76
2022/10/28 08:07:36;;;;;;;0.50;0.40;;;21.50;99.90;;;;;;5054943;28;20441;-78
2022/10/28 08:10:03;;;;;;;0.50;0.30;;;21.70;99.90;;;;;;5054421;28;20439;-78
2022/10/28 08:12:31;;;;;;;0.50;0.40;;;21.80;99.90;;;;;;5054350;28;20489;-76
2022/10/28 08:14:58;;;;;;;3.60;0.90;;;21.90;99.90;;;;;;5054459;28;20437;-78
2022/10/28 08:17:25;;;;;;;1.40;1.30;;;21.80;99.90;;;;;;5054706;28;20445;-78
2022/10/28 08:19:51;;;;;;;0.77;0.70;;;21.90;99.90;;;;;;5054553;28;20443;-79
2022/10/28 08:22:18;;;;;;;0.50;0.40;;;22.00;99.90;;;;;;5055567;28;20552;-78
2022/10/28 08:24:45;;;;;;;0.83;0.83;;;22.00;99.90;;;;;;5055470;28;20452;-79
2022/10/28 08:27:12;;;;;;;6.90;3.47;;;22.00;99.90;;;;;;5054273;28;20818;-76
2022/10/28 08:29:40;;;;;;;0.60;0.60;;;21.80;99.90;;;;;;5053956;28;20440;-78
2022/10/28 08:32:08;;;;;;;0.70;0.70;;;21.80;99.90;;;;;;5053776;28;21024;-77
2022/10/28 08:34:35;;;;;;;0.50;0.37;;;21.70;99.90;;;;;;5053785;28;20441;-77
2022/10/28 08:37:01;;;;;;;1.07;0.60;;;22.10;99.90;;;;;;5054451;28;20452;-78
2022/10/28 08:39:28;;;;;;;7.33;6.90;;;22.60;99.90;;;;;;5053975;28;20528;-77
2022/10/28 08:42:02;;;;;;;0.90;0.50;;;23.10;99.90;;;;;;5053813;28;20548;-77
2022/10/28 08:44:53;;;;;;;0.70;0.70;;;23.60;99.90;;;;;;5053776;28;20931;-78
2022/10/28 08:47:38;;;;;;;0.50;0.40;;;23.80;99.90;;;;;;5054344;28;20424;-78
2022/10/28 08:50:12;;;;;;;0.50;0.40;;;24.10;99.90;;;;;;5053987;28;20939;-77
2022/10/28 08:52:45;;;;;;;0.93;0.50;;;24.90;99.90;;;;;;5054451;28;21060;-78
2022/10/28 08:55:15;;;;;;;0.73;0.70;;;25.00;99.90;;;;;;5053191;28;20508;-78
2022/10/28 08:57:46;;;;;;;2.33;0.60;;;25.40;99.90;;;;;;5054585;28;20522;-78
2022/10/28 09:00:21;;;;;;;0.50;0.30;;;26.30;99.90;;;;;;5053846;28;20972;-78
2022/10/28 09:02:57;;;;;;;0.50;0.33;;;26.60;99.90;;;;;;5053539;28;20540;-79
2022/10/28 09:05:25;;;;;;;15.43;1.70;;;26.50;99.90;;;;;;5053496;28;20445;-78
2022/10/28 09:07:54;;;;;;;0.50;0.30;;;26.10;99.90;;;;;;5054135;28;20437;-78
2022/10/28 09:10:36;;;;;;;0.50;0.37;;;25.80;99.90;;;;;;5054127;28;20440;-78
2022/10/28 09:13:10;;;;;;;0.50;0.40;;;25.50;99.90;;;;;;5053329;28;20563;-78
2022/10/28 09:15:47;;;;;;;27.50;1.80;;;25.40;99.90;;;;;;5053517;28;20531;-78
2022/10/28 09:18:19;;;;;;;0.50;0.30;;;25.00;99.90;;;;;;5053431;28;20421;-76
2022/10/28 09:20:52;;;;;;;10.93;1.90;;;24.60;99.90;;;;;;5053719;28;20426;-78
2022/10/28 09:23:23;;;;;;;0.50;0.40;;;24.40;99.90;;;;;;5072942;22;20491;-78
2022/10/28 09:26:00;;;;;;;0.63;0.63;;;24.10;99.90;;;;;;5054040;28;20469;-79
2022/10/28 09:28:45;;;;;;;0.57;0.47;;;23.80;99.90;;;;;;5054842;28;20786;-78
2022/10/28 09:31:19;;;;;;;0.60;0.50;;;23.70;99.90;;;;;;5055284;28;20409;-77
2022/10/28 09:33:56;;;;;;;0.50;0.30;;;23.70;99.90;;;;;;5054834;28;20862;-78
2022/10/28 09:36:28;;;;;;;0.70;0.50;;;23.90;99.90;;;;;;5055221;28;20456;-79
2022/10/28 09:38:57;;;;;;;0.70;0.70;;;24.00;99.90;;;;;;5055366;28;20814;-78
2022/10/28 09:41:27;;;;;;;0.70;0.50;;;23.90;99.90;;;;;;5055282;28;20532;-78
2022/10/28 09:43:59;;;;;;;1.23;0.97;;;23.80;99.90;;;;;;5054054;28;20457;-77
2022/10/28 09:46:29;;;;;;;0.50;0.30;;;23.90;99.90;;;;;;5055570;28;20424;-78
2022/10/28 09:48:59;;;;;;;0.60;0.40;;;24.10;99.90;;;;;;5055330;28;20460;-78
2022/10/28 09:51:33;;;;;;;0.50;0.30;;;24.10;99.90;;;;;;5055089;28;20447;-78
2022/10/28 09:54:01;;;;;;;0.50;0.40;;;23.90;99.90;;;;;;5055117;28;20483;-78
2022/10/28 09:56:29;;;;;;;0.60;0.50;;;23.70;99.90;;;;;;5054977;28;20551;-78
2022/10/28 09:58:59;;;;;;;0.50;0.40;;;23.70;99.90;;;;;;5054573;28;20443;-78
2022/10/28 10:01:32;;;;;;;1.77;0.60;;;23.70;99.90;;;;;;5055604;28;20433;-78
2022/10/28 10:03:59;;;;;;;1.67;1.57;;;23.80;99.90;;;;;;5055836;28;20459;-78
2022/10/28 10:06:29;;;;;;;0.50;0.30;;;23.80;99.90;;;;;;5054783;28;20451;-79
2022/10/28 10:08:56;;;;;;;0.50;0.30;;;24.00;99.90;;;;;;5055770;28;20467;-79
2022/10/28 10:11:30;;;;;;;0.50;0.50;;;24.20;99.90;;;;;;5056016;28;20440;-79
2022/10/28 10:14:00;;;;;;;2.50;1.97;;;24.10;99.90;;;;;;5058187;28;20969;-78
2022/10/28 10:16:38;;;;;;;4.20;2.90;;;24.10;99.90;;;;;;5054580;28;20441;-78
2022/10/28 10:19:07;;;;;;;1.07;0.90;;;23.70;99.90;;;;;;5054668;28;20903;-78
2022/10/28 10:21:44;;;;;;;0.70;0.70;;;23.60;99.90;;;;;;5053650;28;20451;-78
2022/10/28 10:24:24;;;;;;;4.87;1.73;;;23.60;99.90;;;;;;5053955;28;20479;-78
2022/10/28 10:26:52;;;;;;;1.27;0.90;;;23.60;99.90;;;;;;5054497;28;20566;-78
2022/10/28 10:29:20;;;;;;;0.50;0.30;;;23.70;99.90;;;;;;5054959;28;20437;-78
2022/10/28 10:32:02;;;;;;;14.10;11.67;;;23.70;99.90;;;;;;5055097;28;20467;-78
2022/10/28 10:34:29;;;;;;;0.50;0.30;;;23.80;99.90;;;;;;5054494;28;20429;-78
2022/10/28 10:36:57;;;;;;;0.50;0.40;;;24.00;99.90;;;;;;5054441;28;20536;-75
2022/10/28 10:39:31;;;;;;;1.10;0.70;;;24.30;99.90;;;;;;5055322;28;20499;-78
2022/10/28 10:41:58;;;;;;;0.50;0.30;;;24.40;99.90;;;;;;5055695;28;20450;-78
2022/10/28 10:44:32;;;;;;;0.80;0.60;;;24.30;99.90;;;;;;5054677;28;20437;-78
2022/10/28 10:47:21;;;;;;;0.50;0.30;;;24.30;99.90;;;;;;5054614;28;20422;-78
2022/10/28 10:49:50;;;;;;;0.50;0.30;;;24.40;99.90;;;;;;5054769;28;20974;-78
2022/10/28 10:52:21;;;;;;;0.50;0.30;;;24.40;99.90;;;;;;5054775;28;20483;-78
2022/10/28 10:54:58;;;;;;;0.60;0.40;;;24.80;99.90;;;;;;5053324;28;20535;-78
2022/10/28 10:57:26;;;;;;;0.50;0.40;;;25.10;99.90;;;;;;5053864;28;20440;-78
2022/10/28 10:59:55;;;;;;;2.40;1.30;;;25.40;99.90;;;;;;5053049;28;20445;-78
2022/10/28 11:02:27;;;;;;;1.13;1.03;;;25.70;99.90;;;;;;5052885;28;20467;-78
2022/10/28 11:04:59;;;;;;;0.60;0.47;;;25.60;99.90;;;;;;5053208;28;20425;-76
2022/10/28 11:07:27;;;;;;;0.90;0.80;;;25.60;99.90;;;;;;5054498;28;20504;-79
2022/10/28 11:09:55;;;;;;;0.67;0.67;;;25.40;99.90;;;;;;5057344;28;20433;-79
2022/10/28 11:12:27;;;;;;;1.37;1.27;;;25.30;99.90;;;;;;5059900;28;20488;-79
2022/10/28 11:14:57;;;;;;;0.50;0.30;;;25.40;99.90;;;;;;5055204;28;20495;-77
2022/10/28 11:17:27;;;;;;;1.13;0.50;;;25.50;99.90;;;;;;5052530;28;20441;-80
2022/10/28 11:19:58;;;;;;;1.70;1.60;;;25.60;99.90;;;;;;5051068;28;20465;-78
2022/10/28 11:22:43;;;;;;;7.20;1.00;;;25.70;99.90;;;;;;5052343;28;20570;-78
2022/10/28 11:25:42;;;;;;;28.37;4.07;;;25.80;99.90;;;;;;5055668;28;20445;-77
2022/10/28 11:28:34;;;;;;;0.70;0.63;;;25.50;99.90;;;;;;5051215;28;20455;-78
2022/10/28 11:31:15;;;;;;;0.97;0.97;;;25.50;99.90;;;;;;5055652;28;20436;-77
2022/10/28 11:33:51;;;;;;;0.60;0.50;;;25.40;99.90;;;;;;5056032;28;20503;-76
2022/10/28 11:36:23;;;;;;;0.50;0.40;;;25.20;99.90;;;;;;5056772;28;20439;-78
2022/10/28 11:39:12;;;;;;;1.20;0.97;;;25.30;99.90;;;;;;5056525;28;20445;-77
2022/10/28 11:41:49;;;;;;;1.13;0.90;;;25.30;99.90;;;;;;5059273;28;20436;-80
2022/10/28 11:44:28;;;;;;;0.60;0.53;;;25.20;99.90;;;;;;5058527;28;20524;-79
2022/10/28 11:47:07;;;;;;;0.70;0.63;;;25.20;99.90;;;;;;5059778;28;20427;-79
2022/10/28 11:50:02;;;;;;;12.23;1.27;;;25.20;99.90;;;;;;5055511;28;20423;-77
2022/10/28 11:52:45;;;;;;;1.80;0.60;;;25.20;99.90;;;;;;5056050;28;20487;-79
2022/10/28 11:55:21;;;;;;;4.40;2.20;;;25.10;99.90;;;;;;5055564;28;20617;-79
2022/10/28 11:58:01;;;;;;;0.50;0.47;;;25.10;99.90;;;;;;5056012;28;20421;-79
2022/10/28 12:00:39;;;;;;;3.90;1.00;;;25.20;99.90;;;;;;5055736;28;20479;-79
2022/10/28 12:03:31;;;;;;;0.77;0.57;;;24.90;99.90;;;;;;5055895;28;20523;-79
2022/10/28 12:06:12;;;;;;;1.63;1.17;;;24.90;99.90;;;;;;5055333;28;20445;-77
2022/10/28 12:08:55;;;;;;;0.63;0.63;;;24.90;99.90;;;;;;5056596;28;20417;-78
2022/10/28 12:11:32;;;;;;;1.47;0.80;;;24.90;99.90;;;;;;5055840;28;20914;-77
2022/10/28 12:14:04;;;;;;;1.93;0.90;;;24.80;99.90;;;;;;5055799;28;20479;-79
2022/10/28 12:16:37;;;;;;;0.70;0.50;;;24.90;99.90;;;;;;5061090;28;20512;-80
2022/10/28 12:19:11;;;;;;;0.50;0.30;;;24.80;99.90;;;;;;5066012;28;20468;-79
2022/10/28 12:21:42;;;;;;;31.90;3.60;;;24.90;99.90;;;;;;5058187;28;20428;-79
2022/10/28 12:24:14;;;;;;;0.50;0.30;;;25.00;99.90;;;;;;5054383;28;20685;-79
2022/10/28 12:26:45;;;;;;;0.90;0.87;;;25.10;99.90;;;;;;5055838;28;20422;-79
2022/10/28 12:29:20;;;;;;;0.60;0.40;;;25.00;99.90;;;;;;5055341;28;20434;-79
2022/10/28 12:31:53;;;;;;;1.20;0.70;;;24.90;99.90;;;;;;5055005;28;20444;-78
2022/10/28 12:34:25;;;;;;;1.13;1.13;;;24.60;99.90;;;;;;5054186;28;20550;-78
2022/10/28 12:37:00;;;;;;;0.83;0.83;;;24.50;99.90;;;;;;5055043;28;20425;-77
2022/10/28 12:39:31;;;;;;;0.90;0.60;;;24.60;99.90;;;;;;5055377;28;20431;-79
2022/10/28 12:42:03;;;;;;;1.17;1.07;;;24.70;99.90;;;;;;5054901;28;20439;-79
2022/10/28 12:44:33;;;;;;;0.60;0.60;;;24.90;99.90;;;;;;5055044;28;20437;-79
2022/10/28 12:47:12;;;;;;;1.43;0.70;;;24.80;99.90;;;;;;5054521;28;21249;-79
2022/10/28 12:49:49;;;;;;;0.50;0.30;;;24.80;99.90;;;;;;5055693;28;20895;-79
2022/10/28 12:52:40;;;;;;;0.50;0.40;;;24.90;99.90;;;;;;5054556;28;20461;-80
2022/10/28 12:55:19;;;;;;;0.50;0.30;;;25.00;99.90;;;;;;5054214;28;20441;-79
2022/10/28 12:57:51;;;;;;;0.50;0.30;;;25.20;99.90;;;;;;5055050;28;20504;-78
2022/10/28 13:00:22;;;;;;;1.80;1.50;;;25.00;99.90;;;;;;5054670;28;20928;-79
2022/10/28 13:02:54;;;;;;;0.50;0.30;;;25.10;99.90;;;;;;5054700;28;20456;-79
2022/10/28 13:05:25;;;;;;;1.87;1.77;;;25.20;99.90;;;;;;5054663;28;20524;-79